Time;durP1;ratioP1;P1;durP2;ratioP2;P2;SDS_P1;SDS_P2;PMS_P1;PMS_P2;Temp;Humidity;BMP_temperature;BMP_pressure;BME280_temperature;BME280_humidity;BME280_pressure;Samples;Min_cycle;Max_cycle;Signal;HPM_P1;HPM_P2
2021/06/04 00:00:19;;;;;;;3.40;3.10;;;26.80;50.30;;;;;;5094454;28;20086;-62
2021/06/04 00:02:46;;;;;;;2.70;2.50;;;26.80;50.20;;;;;;5094485;28;20053;-61
2021/06/04 00:05:14;;;;;;;3.38;3.08;;;26.80;50.20;;;;;;5092803;28;20061;-62
2021/06/04 00:07:40;;;;;;;3.20;2.88;;;26.70;50.10;;;;;;5093908;28;20054;-64
2021/06/04 00:10:22;;;;;;;3.15;2.85;;;26.70;50.10;;;;;;5093003;28;20463;-62
2021/06/04 00:12:48;;;;;;;3.42;2.88;;;26.70;50.10;;;;;;5091907;28;20028;-61
2021/06/04 00:15:24;;;;;;;3.38;3.00;;;26.70;50.10;;;;;;5093879;28;20077;-63
2021/06/04 00:17:50;;;;;;;3.33;3.03;;;26.70;50.00;;;;;;5092294;28;20016;-62
2021/06/04 00:20:23;;;;;;;3.53;3.22;;;26.70;50.10;;;;;;5093687;28;20406;-61
2021/06/04 00:22:49;;;;;;;3.67;3.38;;;26.70;50.10;;;;;;5093694;28;20066;-61
2021/06/04 00:25:15;;;;;;;4.35;3.20;;;26.70;50.10;;;;;;5093831;28;20024;-61
2021/06/04 00:27:41;;;;;;;3.83;3.28;;;26.70;50.10;;;;;;5092669;28;20074;-63
2021/06/04 00:30:08;;;;;;;3.35;3.00;;;26.70;50.10;;;;;;5094742;28;20028;-63
2021/06/04 00:32:35;;;;;;;3.80;3.50;;;26.70;50.10;;;;;;5093123;28;20454;-62
2021/06/04 00:35:01;;;;;;;3.33;3.03;;;26.70;50.10;;;;;;5093155;28;20028;-61
2021/06/04 00:37:27;;;;;;;3.97;3.05;;;26.70;50.20;;;;;;5093358;28;20028;-60
2021/06/04 00:39:53;;;;;;;4.22;3.70;;;26.60;50.20;;;;;;5093862;28;20090;-62
2021/06/04 00:42:29;;;;;;;3.78;3.47;;;26.60;50.20;;;;;;5092490;28;20028;-61
2021/06/04 00:44:58;;;;;;;3.70;3.40;;;26.70;50.20;;;;;;5093587;28;20450;-62
2021/06/04 00:47:28;;;;;;;3.40;3.10;;;26.60;50.20;;;;;;5092335;28;20039;-61
2021/06/04 00:49:55;;;;;;;3.72;3.42;;;26.60;50.20;;;;;;5094276;28;20431;-60
2021/06/04 00:52:28;;;;;;;3.95;3.58;;;26.60;50.30;;;;;;5093358;28;20124;-62
2021/06/04 00:54:57;;;;;;;3.72;3.38;;;26.60;50.20;;;;;;5092318;28;20039;-62
2021/06/04 00:57:23;;;;;;;3.67;3.38;;;26.60;50.30;;;;;;5093168;28;20031;-61
2021/06/04 00:59:50;;;;;;;4.28;3.65;;;26.60;50.20;;;;;;5094004;28;20024;-62
2021/06/04 01:02:24;;;;;;;4.15;3.67;;;26.60;50.30;;;;;;5091890;28;20043;-61
2021/06/04 01:04:51;;;;;;;4.13;3.60;;;26.60;50.20;;;;;;5092020;28;20052;-62
2021/06/04 01:07:21;;;;;;;4.13;3.58;;;26.60;50.30;;;;;;5092087;28;20059;-62
2021/06/04 01:10:17;;;;;;;4.57;3.42;;;26.60;50.30;;;;;;5089917;28;20149;-61
2021/06/04 01:13:04;;;;;;;4.05;3.60;;;26.60;50.30;;;;;;5077796;28;20351;-61
2021/06/04 01:15:53;;;;;;;4.20;3.63;;;26.50;50.20;;;;;;5094117;28;20020;-62
2021/06/04 01:18:38;;;;;;;4.10;3.70;;;26.50;50.20;;;;;;5092240;28;20134;-62
2021/06/04 01:21:16;;;;;;;3.85;3.47;;;26.50;50.20;;;;;;5076639;28;20086;-60
2021/06/04 01:23:48;;;;;;;4.07;3.67;;;26.50;50.20;;;;;;5094287;28;20093;-62
2021/06/04 01:26:35;;;;;;;4.45;4.05;;;26.50;50.20;;;;;;5092228;28;20356;-62
2021/06/04 01:29:18;;;;;;;5.25;4.63;;;26.50;50.10;;;;;;5093706;28;20055;-61
2021/06/04 01:31:55;;;;;;;3.63;3.33;;;26.50;50.10;;;;;;5092924;28;20020;-60
2021/06/04 01:34:35;;;;;;;4.10;3.80;;;26.50;50.10;;;;;;5093067;28;20358;-61
2021/06/04 01:37:15;;;;;;;4.93;3.58;;;26.50;50.00;;;;;;5095638;28;20317;-61
2021/06/04 01:39:53;;;;;;;4.53;4.13;;;26.50;50.00;;;;;;5085825;28;20032;-61
2021/06/04 01:42:32;;;;;;;3.90;3.50;;;26.50;50.00;;;;;;5095387;28;20024;-61
2021/06/04 01:45:11;;;;;;;4.28;3.88;;;26.50;50.00;;;;;;5065719;28;20062;-60
2021/06/04 01:47:43;;;;;;;4.53;3.88;;;26.50;50.00;;;;;;5096419;28;20059;-61
2021/06/04 01:50:19;;;;;;;4.50;4.10;;;26.50;49.90;;;;;;5096402;28;20032;-61
2021/06/04 01:52:48;;;;;;;4.30;3.90;;;26.50;49.90;;;;;;5095924;28;20455;-63
2021/06/04 01:55:22;;;;;;;4.20;3.80;;;26.40;49.80;;;;;;5095676;28;20039;-61
2021/06/04 01:57:54;;;;;;;4.55;4.15;;;26.40;49.80;;;;;;5096205;28;20093;-61
2021/06/04 02:00:31;;;;;;;5.78;3.92;;;26.40;49.80;;;;;;5095853;28;20470;-61
2021/06/04 02:03:10;;;;;;;4.18;3.78;;;26.40;49.70;;;;;;5095607;28;20061;-60
2021/06/04 02:05:52;;;;;;;4.25;3.85;;;26.40;49.70;;;;;;5077109;28;20047;-62
2021/06/04 02:08:25;;;;;;;4.47;4.03;;;26.40;49.70;;;;;;5089860;28;20358;-60
2021/06/04 02:10:53;;;;;;;4.43;4.03;;;26.40;49.70;;;;;;5096956;28;20067;-60
2021/06/04 02:13:19;;;;;;;4.47;4.00;;;26.40;49.70;;;;;;5093823;28;20328;-62
2021/06/04 02:16:31;;;;;;;4.30;3.90;;;26.40;49.60;;;;;;5095451;28;20089;-60
2021/06/04 02:19:04;;;;;;;4.75;4.25;;;26.40;49.60;;;;;;5064888;28;20455;-60
2021/06/04 02:22:09;;;;;;;5.18;4.10;;;26.40;49.60;;;;;;5060455;28;20033;-62
2021/06/04 02:25:00;;;;;;;4.78;4.13;;;26.40;49.50;;;;;;5088980;28;20376;-62
2021/06/04 02:27:46;;;;;;;4.78;3.60;;;26.30;49.40;;;;;;5094994;28;20528;-64
2021/06/04 02:30:20;;;;;;;4.78;4.05;;;26.40;49.50;;;;;;5076812;28;20119;-62
2021/06/04 02:32:46;;;;;;;5.10;4.40;;;26.30;49.40;;;;;;5085170;28;20073;-63
2021/06/04 02:35:39;;;;;;;5.47;4.45;;;26.30;49.30;;;;;;5094240;28;20093;-62
2021/06/04 02:38:18;;;;;;;4.65;4.15;;;26.30;49.30;;;;;;5096290;28;20436;-62
2021/06/04 02:40:51;;;;;;;5.10;4.60;;;26.30;49.30;;;;;;5095364;28;20105;-61
2021/06/04 02:43:33;;;;;;;4.78;4.35;;;26.30;49.30;;;;;;5094350;28;20366;-61
2021/06/04 02:46:22;;;;;;;5.22;4.57;;;26.30;49.30;;;;;;5095918;28;20129;-63
2021/06/04 02:48:50;;;;;;;4.68;4.28;;;26.30;49.90;;;;;;5096069;28;20416;-61
2021/06/04 02:51:35;;;;;;;6.78;4.68;;;26.30;49.30;;;;;;5095500;28;20084;-64
2021/06/04 02:54:11;;;;;;;6.53;4.65;;;26.30;49.30;;;;;;5095687;28;20055;-62
2021/06/04 02:56:44;;;;;;;4.55;4.15;;;26.30;49.30;;;;;;5094082;28;20089;-62
2021/06/04 02:59:20;;;;;;;5.03;4.53;;;26.30;49.30;;;;;;5094561;28;20035;-62
2021/06/04 03:01:54;;;;;;;5.95;4.95;;;26.30;49.30;;;;;;5096036;28;20032;-63
2021/06/04 03:04:22;;;;;;;4.47;4.03;;;26.30;49.30;;;;;;5093723;28;20098;-62
2021/06/04 03:06:54;;;;;;;4.82;4.32;;;26.30;49.30;;;;;;5094629;28;20567;-60
2021/06/04 03:09:32;;;;;;;4.95;4.30;;;26.30;49.30;;;;;;5093999;28;20023;-63
2021/06/04 03:12:22;;;;;;;5.13;4.00;;;26.30;49.30;;;;;;5093939;28;20364;-62
2021/06/04 03:14:51;;;;;;;5.55;4.30;;;26.30;49.30;;;;;;5090397;28;20020;-62
2021/06/04 03:17:21;;;;;;;4.20;3.80;;;26.30;49.30;;;;;;5093625;28;20062;-61
2021/06/04 03:19:47;;;;;;;4.82;3.97;;;26.30;49.30;;;;;;5094520;28;20070;-63
2021/06/04 03:22:30;;;;;;;5.32;4.70;;;26.30;49.30;;;;;;5093617;28;20028;-63
2021/06/04 03:25:15;;;;;;;4.53;4.13;;;26.30;49.30;;;;;;5077709;28;20061;-62
2021/06/04 03:27:43;;;;;;;4.55;3.92;;;26.30;49.30;;;;;;5078266;28;20119;-61
2021/06/04 03:30:18;;;;;;;5.25;4.75;;;26.20;49.20;;;;;;5095171;28;20024;-60
2021/06/04 03:32:44;;;;;;;4.90;4.40;;;26.20;49.20;;;;;;5094676;28;20058;-61
2021/06/04 03:35:12;;;;;;;5.43;4.93;;;26.20;49.20;;;;;;5093942;28;20090;-62
2021/06/04 03:37:38;;;;;;;5.22;4.72;;;26.20;49.20;;;;;;5094152;28;20096;-61
2021/06/04 03:40:13;;;;;;;5.22;4.50;;;26.30;49.30;;;;;;5094955;28;20524;-62
2021/06/04 03:42:40;;;;;;;;;;;26.20;49.10;;;;;;5095215;28;20381;-61
2021/06/04 03:45:11;;;;;;;4.80;4.40;;;26.20;49.20;;;;;;5093505;28;19919;-61
2021/06/04 03:47:37;;;;;;;5.28;4.50;;;26.20;49.20;;;;;;5094607;28;20166;-61
2021/06/04 03:50:15;;;;;;;5.10;4.63;;;26.20;49.20;;;;;;5093875;28;20020;-60
2021/06/04 03:52:42;;;;;;;6.68;5.32;;;26.20;49.00;;;;;;5075797;28;20355;-62
2021/06/04 03:55:11;;;;;;;4.95;4.43;;;26.20;49.10;;;;;;5094905;28;20032;-60
2021/06/04 03:57:38;;;;;;;5.82;5.20;;;26.20;49.00;;;;;;5094430;28;20024;-59
2021/06/04 04:00:09;;;;;;;5.28;4.78;;;26.10;49.00;;;;;;5093750;28;20020;-60
2021/06/04 04:02:38;;;;;;;4.95;4.45;;;26.20;49.00;;;;;;5094261;28;20443;-61
2021/06/04 04:05:05;;;;;;;5.75;4.70;;;26.20;49.00;;;;;;5094354;28;20062;-61
2021/06/04 04:07:31;;;;;;;6.10;4.78;;;26.20;48.90;;;;;;5094809;28;20024;-60
2021/06/04 04:09:57;;;;;;;5.18;4.68;;;26.10;48.80;;;;;;5094620;28;20338;-60
2021/06/04 04:12:26;;;;;;;5.38;4.80;;;26.20;48.90;;;;;;5093452;28;20097;-62
2021/06/04 04:14:52;;;;;;;4.88;4.38;;;26.10;48.80;;;;;;5093598;28;20052;-62
2021/06/04 04:17:19;;;;;;;5.05;4.50;;;26.10;48.80;;;;;;5095000;28;20024;-61
2021/06/04 04:19:46;;;;;;;4.68;4.28;;;26.10;48.90;;;;;;5093492;28;20811;-63
2021/06/04 04:22:12;;;;;;;4.97;4.47;;;26.10;48.80;;;;;;5092756;28;20335;-61
2021/06/04 04:24:39;;;;;;;4.95;4.00;;;26.10;48.80;;;;;;5093186;28;20118;-61
2021/06/04 04:27:08;;;;;;;5.82;4.32;;;26.10;48.90;;;;;;5094670;28;20447;-61
2021/06/04 04:29:34;;;;;;;4.75;4.28;;;26.10;48.90;;;;;;5092691;28;20058;-62
2021/06/04 04:32:03;;;;;;;4.55;4.15;;;26.10;48.90;;;;;;5092965;28;20115;-63
2021/06/04 04:34:30;;;;;;;4.90;4.35;;;26.10;48.90;;;;;;5094134;28;20032;-62
2021/06/04 04:36:59;;;;;;;4.72;4.32;;;26.10;49.60;;;;;;5093956;28;20074;-62
2021/06/04 04:39:36;;;;;;;4.90;4.40;;;26.10;49.00;;;;;;5093554;28;20032;-62
2021/06/04 04:42:04;;;;;;;4.72;4.28;;;26.20;49.00;;;;;;5093869;28;20023;-61
2021/06/04 04:44:33;;;;;;;4.50;4.10;;;26.10;49.00;;;;;;5093791;28;20048;-61
2021/06/04 04:47:01;;;;;;;4.57;4.13;;;26.10;49.00;;;;;;5094183;28;20118;-61
2021/06/04 04:49:27;;;;;;;4.70;4.20;;;26.10;49.00;;;;;;5092015;28;20038;-62
2021/06/04 04:51:53;;;;;;;5.15;4.20;;;26.10;49.00;;;;;;5094031;28;20028;-63
2021/06/04 04:54:19;;;;;;;4.70;4.28;;;26.10;49.00;;;;;;5093869;28;20407;-63
2021/06/04 04:56:48;;;;;;;5.28;4.57;;;26.10;49.00;;;;;;5094454;28;20344;-62
2021/06/04 04:59:14;;;;;;;4.70;4.22;;;26.10;49.00;;;;;;5094039;28;20103;-61
2021/06/04 05:01:41;;;;;;;5.63;5.13;;;26.10;49.00;;;;;;5091887;28;20093;-63
2021/06/04 05:04:07;;;;;;;4.75;4.07;;;26.10;49.10;;;;;;5092986;28;20048;-61
2021/06/04 05:06:35;;;;;;;5.63;4.88;;;26.10;49.10;;;;;;5094157;28;20058;-62
2021/06/04 05:09:04;;;;;;;4.47;4.05;;;26.10;49.10;;;;;;5092283;28;20038;-61
2021/06/04 05:11:30;;;;;;;5.00;4.50;;;26.10;49.10;;;;;;5095935;28;20024;-62
2021/06/04 05:13:56;;;;;;;5.15;4.65;;;26.10;49.10;;;;;;5096927;28;20427;-62
2021/06/04 05:16:21;;;;;;;5.80;5.28;;;26.10;49.70;;;;;;5098099;28;20370;-61
2021/06/04 05:18:47;;;;;;;5.97;5.38;;;26.10;49.10;;;;;;5097199;28;20400;-63
2021/06/04 05:21:15;;;;;;;5.10;4.60;;;26.10;49.10;;;;;;5097358;28;20032;-62
2021/06/04 05:23:42;;;;;;;5.03;4.53;;;26.10;49.10;;;;;;5097553;28;20040;-61
2021/06/04 05:26:08;;;;;;;5.03;4.53;;;26.10;49.10;;;;;;5097246;28;20276;-62
2021/06/04 05:28:35;;;;;;;5.72;5.05;;;26.10;49.10;;;;;;5096535;28;20035;-62
2021/06/04 05:31:06;;;;;;;4.93;4.43;;;26.10;49.10;;;;;;5096658;28;20107;-61
2021/06/04 05:33:36;;;;;;;5.32;4.82;;;26.10;49.10;;;;;;5095755;28;20070;-61
2021/06/04 05:36:06;;;;;;;7.07;4.82;;;26.10;49.10;;;;;;5093693;28;20024;-62
2021/06/04 05:38:32;;;;;;;5.88;4.57;;;26.10;49.10;;;;;;5077790;28;20093;-62
2021/06/04 05:40:58;;;;;;;5.28;4.72;;;26.10;49.10;;;;;;5091776;28;20045;-62
2021/06/04 05:43:29;;;;;;;4.38;3.97;;;26.10;49.10;;;;;;5097844;28;20039;-61
2021/06/04 05:45:55;;;;;;;5.00;4.50;;;26.10;49.10;;;;;;5095232;28;20028;-59
2021/06/04 05:48:22;;;;;;;4.93;4.35;;;26.10;49.10;;;;;;5097257;28;20024;-62
2021/06/04 05:50:51;;;;;;;4.38;3.97;;;26.10;49.10;;;;;;5096653;28;20028;-59
2021/06/04 05:53:23;;;;;;;4.28;3.88;;;26.10;49.10;;;;;;5078035;28;20031;-61
2021/06/04 05:55:49;;;;;;;4.85;3.83;;;26.10;49.10;;;;;;5095174;28;20443;-61
2021/06/04 05:58:18;;;;;;;4.78;4.00;;;26.10;48.90;;;;;;5097701;28;20196;-61
2021/06/04 06:00:47;;;;;;;5.40;4.07;;;26.20;49.00;;;;;;5095147;28;20028;-60
2021/06/04 06:03:16;;;;;;;5.25;4.30;;;26.10;48.90;;;;;;5096810;28;20048;-61
2021/06/04 06:05:42;;;;;;;4.43;4.03;;;26.10;48.90;;;;;;5095184;28;20067;-62
2021/06/04 06:08:09;;;;;;;4.28;3.55;;;26.20;48.90;;;;;;5096638;28;20043;-62
2021/06/04 06:10:35;;;;;;;4.03;3.63;;;26.20;48.90;;;;;;5095478;28;20036;-63
2021/06/04 06:13:00;;;;;;;3.85;3.33;;;26.20;48.90;;;;;;5096507;28;20101;-61
2021/06/04 06:15:28;;;;;;;5.53;4.32;;;26.20;48.90;;;;;;5095674;28;20032;-62
2021/06/04 06:17:54;;;;;;;4.25;3.53;;;26.20;48.90;;;;;;5095841;28;20028;-61
2021/06/04 06:20:25;;;;;;;4.60;3.95;;;26.20;48.90;;;;;;5096446;28;20419;-62
2021/06/04 06:22:52;;;;;;;4.78;3.85;;;26.20;48.80;;;;;;5094151;28;20044;-60
2021/06/04 06:25:23;;;;;;;5.32;3.90;;;26.20;48.90;;;;;;5096425;28;20032;-62
2021/06/04 06:27:49;;;;;;;4.03;3.67;;;26.20;48.80;;;;;;5096268;28;20039;-61
2021/06/04 06:30:20;;;;;;;4.10;3.65;;;26.20;48.70;;;;;;5096196;28;20032;-61
2021/06/04 06:32:47;;;;;;;3.72;3.33;;;26.20;48.70;;;;;;5084177;28;20032;-61
2021/06/04 06:35:14;;;;;;;4.68;4.10;;;26.20;48.70;;;;;;5094585;28;20028;-62
2021/06/04 06:37:40;;;;;;;4.72;4.20;;;26.20;48.70;;;;;;5095592;28;20024;-61
2021/06/04 06:40:08;;;;;;;5.55;5.00;;;26.20;48.70;;;;;;5096459;28;20427;-62
2021/06/04 06:42:34;;;;;;;5.55;4.60;;;26.20;48.60;;;;;;5095430;28;20157;-62
2021/06/04 06:45:00;;;;;;;5.85;4.50;;;26.20;48.60;;;;;;5095839;28;20027;-61
2021/06/04 06:47:26;;;;;;;6.13;4.68;;;26.20;48.60;;;;;;5095506;28;20028;-61
2021/06/04 06:49:52;;;;;;;7.00;4.65;;;26.20;48.70;;;;;;5094976;28;20017;-62
2021/06/04 06:52:18;;;;;;;4.90;4.22;;;26.20;48.70;;;;;;5095117;28;20078;-62
2021/06/04 06:54:44;;;;;;;5.63;4.53;;;26.20;48.60;;;;;;5088354;28;20066;-62
2021/06/04 06:57:10;;;;;;;5.53;4.97;;;26.20;48.70;;;;;;5084631;28;20111;-61
2021/06/04 06:59:36;;;;;;;5.28;4.60;;;26.20;48.70;;;;;;5092963;28;20071;-61
2021/06/04 07:02:11;;;;;;;5.50;4.40;;;26.20;48.60;;;;;;5088913;28;20048;-62
2021/06/04 07:04:37;;;;;;;6.50;4.70;;;26.20;48.60;;;;;;5092602;28;20045;-62
2021/06/04 07:07:04;;;;;;;4.13;3.72;;;26.20;48.60;;;;;;5095794;28;20150;-62
2021/06/04 07:09:31;;;;;;;5.38;4.15;;;26.20;48.60;;;;;;5093626;28;20058;-62
2021/06/04 07:11:57;;;;;;;5.38;4.07;;;26.20;48.60;;;;;;5091096;28;20020;-62
2021/06/04 07:14:33;;;;;;;5.22;4.07;;;26.20;48.50;;;;;;5093185;28;20119;-61
2021/06/04 07:17:01;;;;;;;4.07;3.67;;;26.30;48.50;;;;;;5095214;28;20032;-60
2021/06/04 07:19:28;;;;;;;4.57;3.80;;;26.30;48.50;;;;;;5095594;28;20028;-61
2021/06/04 07:21:54;;;;;;;4.00;3.60;;;26.30;48.50;;;;;;5094844;28;20349;-60
2021/06/04 07:24:22;;;;;;;4.70;3.67;;;26.30;48.50;;;;;;5094797;28;20111;-61
2021/06/04 07:26:54;;;;;;;3.92;3.53;;;26.30;48.50;;;;;;5095385;28;20355;-60
2021/06/04 07:29:24;;;;;;;4.47;3.60;;;26.30;48.40;;;;;;5094246;28;20031;-62
2021/06/04 07:31:51;;;;;;;4.13;3.47;;;26.30;48.40;;;;;;5093515;28;20036;-61
2021/06/04 07:34:17;;;;;;;4.55;4.03;;;26.30;48.40;;;;;;5093336;28;20027;-61
2021/06/04 07:36:48;;;;;;;4.28;3.55;;;26.30;48.40;;;;;;5094374;28;20016;-60
2021/06/04 07:39:18;;;;;;;4.55;3.97;;;26.30;48.30;;;;;;5094153;28;20054;-62
2021/06/04 07:41:44;;;;;;;3.83;3.42;;;26.30;48.30;;;;;;5093067;28;20044;-60
2021/06/04 07:44:12;;;;;;;5.70;4.05;;;26.30;48.30;;;;;;5093843;28;20109;-61
2021/06/04 07:46:38;;;;;;;4.93;4.13;;;26.30;48.30;;;;;;5076965;28;20037;-60
2021/06/04 07:49:04;;;;;;;4.00;3.55;;;26.30;48.30;;;;;;5092360;28;20078;-62
2021/06/04 07:51:35;;;;;;;4.38;3.97;;;26.30;48.20;;;;;;5094645;28;20384;-60
2021/06/04 07:54:01;;;;;;;4.10;3.63;;;26.30;48.20;;;;;;5095000;28;20115;-62
2021/06/04 07:56:27;;;;;;;3.83;3.33;;;26.30;48.10;;;;;;5094520;28;20031;-60
2021/06/04 07:58:53;;;;;;;4.00;3.58;;;26.30;48.00;;;;;;5094989;28;20388;-63
2021/06/04 08:01:19;;;;;;;4.07;3.50;;;26.30;48.00;;;;;;5094342;28;20119;-62
2021/06/04 08:03:46;;;;;;;4.03;3.63;;;26.30;47.90;;;;;;5094011;28;20032;-62
2021/06/04 08:06:15;;;;;;;4.80;3.42;;;26.30;47.80;;;;;;5094069;28;20354;-62
2021/06/04 08:08:41;;;;;;;4.78;3.60;;;26.30;47.70;;;;;;5095413;28;20020;-61
2021/06/04 08:11:10;;;;;;;5.07;3.80;;;26.30;47.60;;;;;;5088160;28;20050;-62
2021/06/04 08:13:37;;;;;;;3.55;3.20;;;26.40;47.60;;;;;;5089678;28;20435;-62
2021/06/04 08:16:07;;;;;;;3.63;3.05;;;26.30;47.50;;;;;;5093597;28;20351;-64
2021/06/04 08:18:36;;;;;;;5.18;3.70;;;26.30;47.50;;;;;;5093393;28;20171;-62
2021/06/04 08:21:05;;;;;;;3.95;3.10;;;26.30;47.50;;;;;;5090146;28;20043;-60
2021/06/04 08:23:37;;;;;;;5.53;2.92;;;26.30;47.50;;;;;;5091910;28;20050;-62
2021/06/04 08:26:06;;;;;;;3.97;3.03;;;26.30;47.50;;;;;;5094348;28;20039;-62
2021/06/04 08:28:32;;;;;;;3.10;2.72;;;26.30;47.40;;;;;;5067713;28;20020;-62
2021/06/04 08:30:59;;;;;;;3.70;3.10;;;26.30;47.40;;;;;;5092205;28;20048;-61
2021/06/04 08:33:32;;;;;;;4.78;2.72;;;26.40;48.10;;;;;;5092805;28;20030;-63
2021/06/04 08:35:59;;;;;;;4.22;3.30;;;26.40;47.40;;;;;;5094022;28;20036;-62
2021/06/04 08:38:28;;;;;;;3.95;2.88;;;26.40;47.30;;;;;;5092481;28;20039;-63
2021/06/04 08:40:55;;;;;;;3.35;3.05;;;26.40;47.40;;;;;;5093649;28;20036;-63
2021/06/04 08:43:32;;;;;;;5.70;3.25;;;26.40;47.40;;;;;;5093548;28;20044;-63
2021/06/04 08:46:01;;;;;;;3.53;2.70;;;26.40;47.40;;;;;;5090367;28;20097;-62
2021/06/04 08:48:47;;;;;;;3.28;2.85;;;26.40;47.40;;;;;;5090312;28;20059;-62
2021/06/04 08:51:16;;;;;;;4.30;2.97;;;26.40;47.40;;;;;;5092806;28;20343;-63
2021/06/04 08:54:06;;;;;;;3.00;2.70;;;26.40;47.40;;;;;;5092133;28;20027;-62
2021/06/04 08:56:56;;;;;;;4.30;3.28;;;26.40;47.40;;;;;;5091689;28;20020;-61
2021/06/04 08:59:24;;;;;;;3.20;2.90;;;26.40;47.40;;;;;;5082968;28;20077;-63
2021/06/04 09:01:59;;;;;;;2.90;2.60;;;26.40;47.40;;;;;;5090396;28;20039;-64
2021/06/04 09:04:33;;;;;;;3.40;3.00;;;26.40;47.40;;;;;;5073057;28;20071;-62
2021/06/04 09:07:08;;;;;;;3.20;2.60;;;26.40;48.10;;;;;;5090617;28;20051;-63
2021/06/04 09:09:44;;;;;;;3.33;2.78;;;26.40;47.40;;;;;;5091929;28;20035;-63
2021/06/04 09:12:17;;;;;;;3.10;2.72;;;26.50;47.60;;;;;;5080634;28;20387;-63
2021/06/04 09:14:47;;;;;;;4.35;3.10;;;26.40;47.50;;;;;;5090842;28;20036;-62
2021/06/04 09:17:52;;;;;;;3.00;2.70;;;26.50;47.60;;;;;;5092938;28;20016;-62
2021/06/04 09:21:05;;;;;;;3.60;2.83;;;26.50;47.60;;;;;;5090640;28;20092;-62
2021/06/04 09:23:35;;;;;;;2.70;2.50;;;26.50;47.60;;;;;;5042794;28;20041;-63
2021/06/04 09:26:01;;;;;;;3.00;2.42;;;26.50;47.70;;;;;;5036897;28;20110;-63
2021/06/04 09:28:30;;;;;;;3.35;2.15;;;26.50;47.60;;;;;;5066529;28;20469;-62
2021/06/04 09:31:26;;;;;;;2.75;2.50;;;26.50;47.60;;;;;;5092841;28;20401;-63
2021/06/04 09:33:57;;;;;;;3.40;2.45;;;26.50;47.50;;;;;;5091957;28;20039;-62
2021/06/04 09:36:40;;;;;;;4.35;2.63;;;26.50;47.50;;;;;;5092141;28;20035;-63
2021/06/04 09:39:25;;;;;;;3.42;2.28;;;26.50;47.50;;;;;;5091271;28;20131;-62
2021/06/04 09:41:52;;;;;;;3.10;2.63;;;26.60;47.40;;;;;;5091108;28;20056;-62
2021/06/04 09:44:19;;;;;;;3.03;2.63;;;26.60;47.40;;;;;;5092842;28;20032;-63
2021/06/04 09:47:15;;;;;;;3.50;3.03;;;26.60;47.40;;;;;;5092225;28;20024;-63
2021/06/04 09:49:40;;;;;;;3.55;2.70;;;26.60;47.40;;;;;;5090114;28;20055;-61
2021/06/04 09:52:22;;;;;;;3.58;2.80;;;26.60;47.40;;;;;;5092015;28;20055;-62
2021/06/04 09:55:21;;;;;;;3.85;3.20;;;26.70;47.50;;;;;;5092033;28;20063;-62
2021/06/04 09:58:01;;;;;;;5.13;2.90;;;26.70;47.50;;;;;;5093833;28;20032;-61
2021/06/04 10:00:51;;;;;;;3.72;2.85;;;26.70;47.60;;;;;;5093719;28;20050;-63
2021/06/04 10:03:23;;;;;;;3.33;2.83;;;26.70;47.70;;;;;;5092727;28;20107;-64
2021/06/04 10:06:07;;;;;;;3.17;2.88;;;26.70;47.70;;;;;;5094905;28;20052;-62
2021/06/04 10:09:12;;;;;;;3.55;3.25;;;26.70;47.80;;;;;;5094254;28;20020;-63
2021/06/04 10:11:41;;;;;;;3.15;2.85;;;26.80;47.90;;;;;;5092684;28;20066;-61
2021/06/04 10:14:26;;;;;;;4.85;3.33;;;26.70;47.90;;;;;;5095059;28;20077;-62
2021/06/04 10:19:41;;;;;;;3.92;3.53;;;26.80;48.60;;;;;;5096304;28;20037;-64
2021/06/04 10:22:36;;;;;;;5.05;2.97;;;26.80;48.00;;;;;;5092201;28;20024;-62
2021/06/04 10:25:11;;;;;;;3.33;3.03;;;26.80;48.00;;;;;;5088115;28;20044;-62
2021/06/04 10:27:59;;;;;;;3.33;3.03;;;26.80;48.10;;;;;;5090242;28;20420;-62
2021/06/04 10:30:42;;;;;;;3.10;2.80;;;26.90;48.30;;;;;;5090813;28;20032;-62
2021/06/04 10:33:15;;;;;;;3.30;3.00;;;27.00;48.40;;;;;;5087089;28;20032;-63
2021/06/04 10:36:00;;;;;;;3.08;2.78;;;27.00;48.40;;;;;;5086084;28;20039;-61
2021/06/04 10:38:36;;;;;;;2.88;2.58;;;27.00;48.40;;;;;;5085508;28;20093;-61
2021/06/04 10:41:10;;;;;;;3.40;3.10;;;27.00;48.30;;;;;;5085030;28;20028;-61
2021/06/04 10:43:57;;;;;;;2.60;2.40;;;27.00;48.30;;;;;;5087650;28;20147;-63
2021/06/04 10:46:40;;;;;;;3.35;2.63;;;27.10;48.30;;;;;;5082368;28;20035;-64
2021/06/04 10:49:30;;;;;;;3.28;2.70;;;27.10;48.20;;;;;;5085762;28;20035;-64
2021/06/04 10:52:06;;;;;;;2.97;2.75;;;27.20;48.20;;;;;;5087958;28;20052;-61
2021/06/04 10:55:11;;;;;;;3.75;2.70;;;27.20;48.20;;;;;;5085028;28;20427;-62
2021/06/04 10:58:09;;;;;;;3.83;2.90;;;27.30;48.20;;;;;;5085452;28;20035;-65
2021/06/04 11:00:47;;;;;;;4.03;2.67;;;27.30;48.80;;;;;;5086237;28;20112;-65
2021/06/04 11:03:18;;;;;;;3.45;3.15;;;27.30;48.30;;;;;;5084979;28;21220;-63
2021/06/04 11:06:20;;;;;;;3.70;3.00;;;27.30;48.30;;;;;;5087857;28;20047;-66
2021/06/04 11:09:10;;;;;;;3.28;2.97;;;27.40;48.40;;;;;;5077555;28;20454;-65
2021/06/04 11:12:04;;;;;;;3.92;3.50;;;27.40;48.40;;;;;;5086140;28;20185;-62
2021/06/04 11:14:35;;;;;;;3.22;2.92;;;27.50;48.40;;;;;;5087402;28;20069;-62
2021/06/04 11:17:27;;;;;;;3.15;2.88;;;27.50;48.40;;;;;;5086255;28;20042;-62
2021/06/04 11:20:08;;;;;;;3.88;3.17;;;27.50;48.40;;;;;;5087487;28;20484;-62
2021/06/04 11:23:11;;;;;;;3.53;3.22;;;27.50;48.30;;;;;;5084522;28;20402;-62
2021/06/04 11:25:45;;;;;;;3.38;2.92;;;27.60;48.30;;;;;;5082169;28;20040;-62
2021/06/04 11:28:11;;;;;;;;;;;27.60;48.30;;;;;;5071121;28;20028;-61
2021/06/04 11:30:38;;;;;;;3.00;2.47;;;27.50;48.20;;;;;;5083165;28;19930;-61
2021/06/04 11:33:13;;;;;;;3.72;3.10;;;27.60;48.30;;;;;;5084001;28;20032;-62
2021/06/04 11:36:04;;;;;;;3.33;3.03;;;27.60;48.20;;;;;;5089546;28;20034;-62
2021/06/04 11:38:36;;;;;;;3.28;2.97;;;27.70;48.10;;;;;;5081326;28;20055;-61
2021/06/04 11:41:16;;;;;;;3.45;3.10;;;27.70;48.10;;;;;;5087134;28;20444;-61
2021/06/04 11:43:46;;;;;;;3.35;3.05;;;27.70;48.00;;;;;;5068388;28;20465;-61
2021/06/04 11:46:16;;;;;;;3.30;3.00;;;27.70;47.90;;;;;;5085177;28;20123;-63
2021/06/04 11:49:11;;;;;;;3.08;2.78;;;27.80;47.90;;;;;;5086049;28;20176;-63
2021/06/04 11:51:36;;;;;;;;;;;27.80;47.90;;;;;;5085283;28;20077;-62
2021/06/04 11:54:17;;;;;;;3.55;2.53;;;27.80;47.90;;;;;;5084211;28;20292;-61
2021/06/04 11:56:53;;;;;;;3.42;2.80;;;27.80;47.90;;;;;;5084887;28;20046;-62
2021/06/04 11:59:45;;;;;;;3.30;3.00;;;27.90;47.90;;;;;;5089422;28;20082;-62
2021/06/04 12:02:32;;;;;;;3.22;2.92;;;27.90;48.00;;;;;;5087530;28;20040;-61
2021/06/04 12:05:06;;;;;;;3.45;3.13;;;27.90;48.10;;;;;;5089133;28;20043;-61
2021/06/04 12:07:33;;;;;;;4.53;2.78;;;28.00;48.10;;;;;;5086619;28;20054;-62
2021/06/04 12:09:59;;;;;;;3.92;3.38;;;28.00;48.10;;;;;;5085831;28;20093;-62
2021/06/04 12:12:25;;;;;;;3.47;3.17;;;28.00;48.00;;;;;;5086518;28;20024;-61
2021/06/04 12:14:54;;;;;;;3.13;2.83;;;28.00;47.90;;;;;;5086751;28;20028;-62
2021/06/04 12:17:28;;;;;;;3.55;3.25;;;28.10;47.90;;;;;;5087076;28;20037;-63
2021/06/04 12:20:12;;;;;;;3.53;2.88;;;28.10;47.90;;;;;;5086421;28;20070;-61
2021/06/04 12:22:46;;;;;;;2.90;2.60;;;28.10;47.80;;;;;;5091714;28;20081;-62
2021/06/04 12:25:32;;;;;;;3.00;2.70;;;28.20;47.80;;;;;;5085570;28;20036;-63
2021/06/04 12:28:05;;;;;;;3.03;2.83;;;28.20;47.80;;;;;;5083545;28;20035;-58
2021/06/04 12:30:59;;;;;;;3.40;3.10;;;28.20;47.70;;;;;;5084717;28;20327;-59
2021/06/04 12:33:37;;;;;;;;;;;28.20;47.60;;;;;;5087557;28;20027;-58
2021/06/04 12:36:38;;;;;;;3.50;2.63;;;28.20;47.60;;;;;;5086546;28;20350;-63
2021/06/04 12:39:29;;;;;;;2.97;2.65;;;28.30;47.60;;;;;;5084197;28;20028;-62
2021/06/04 12:42:25;;;;;;;2.67;2.47;;;28.30;47.50;;;;;;5076855;28;20032;-64
2021/06/04 12:44:53;;;;;;;2.78;2.55;;;28.30;47.50;;;;;;5084158;28;20032;-62
2021/06/04 12:47:29;;;;;;;3.03;2.72;;;28.30;47.50;;;;;;5087265;28;20028;-62
2021/06/04 12:50:10;;;;;;;2.75;2.45;;;28.30;47.50;;;;;;5089773;28;20028;-63
2021/06/04 12:52:40;;;;;;;3.03;2.72;;;28.30;47.50;;;;;;5089593;28;20040;-66
2021/06/04 12:55:15;;;;;;;3.17;2.88;;;28.30;47.90;;;;;;5083121;28;20028;-65
2021/06/04 12:57:44;;;;;;;3.22;2.92;;;28.40;48.20;;;;;;5088740;28;20046;-66
2021/06/04 13:00:32;;;;;;;3.25;2.72;;;28.40;48.30;;;;;;5085782;28;20028;-67
2021/06/04 13:03:10;;;;;;;3.10;2.85;;;28.40;48.20;;;;;;5087918;28;20028;-63
2021/06/04 13:05:36;;;;;;;3.13;2.80;;;28.40;48.10;;;;;;5083743;28;20139;-63
2021/06/04 13:08:32;;;;;;;4.10;3.50;;;28.40;48.10;;;;;;5088597;28;20028;-63
2021/06/04 13:11:11;;;;;;;3.13;2.65;;;28.40;48.00;;;;;;5081804;28;20032;-63
2021/06/04 13:13:49;;;;;;;3.40;3.10;;;28.40;47.90;;;;;;5083302;28;20422;-65
2021/06/04 13:16:21;;;;;;;3.33;3.00;;;28.40;47.80;;;;;;5083377;28;20446;-63
2021/06/04 13:18:50;;;;;;;4.15;3.75;;;28.40;47.80;;;;;;5079091;28;20024;-61
2021/06/04 13:21:39;;;;;;;3.30;3.00;;;28.40;47.70;;;;;;5084050;28;20059;-63
2021/06/04 13:24:14;;;;;;;2.92;2.63;;;28.40;47.50;;;;;;5079976;28;20148;-62